Time;durP1;ratioP1;P1;durP2;ratioP2;P2;SDS_P1;SDS_P2;PMS_P1;PMS_P2;Temp;Humidity;BMP_temperature;BMP_pressure;BME280_temperature;BME280_humidity;BME280_pressure;Samples;Min_cycle;Max_cycle;Signal;HPM_P1;HPM_P2
2024/01/17 00:00:04;;;;;;;104.95;59.15;;;;;;;2.58;100.00;99146.56;5005612;28;20057;-78
2024/01/17 00:02:37;;;;;;;104.03;59.92;;;;;;;2.52;100.00;99153.03;5012755;28;20042;-78
2024/01/17 00:05:03;;;;;;;101.90;58.00;;;;;;;2.49;100.00;99161.03;5012127;28;20502;-78
2024/01/17 00:07:29;;;;;;;106.93;58.25;;;;;;;2.46;100.00;99140.41;5023796;28;20053;-78
2024/01/17 00:09:54;;;;;;;111.57;61.53;;;;;;;2.44;100.00;99111.03;5032811;28;20037;-77
2024/01/17 00:12:19;;;;;;;101.15;59.53;;;;;;;2.48;100.00;99115.91;5015420;28;20034;-77
2024/01/17 00:14:45;;;;;;;106.28;59.92;;;;;;;2.49;100.00;99103.72;5015649;28;20026;-78
2024/01/17 00:17:11;;;;;;;110.25;62.03;;;;;;;2.51;100.00;99096.66;5004218;28;20092;-78
2024/01/17 00:19:37;;;;;;;99.57;57.67;;;;;;;2.56;100.00;99084.16;5002372;28;20037;-77
2024/01/17 00:22:03;;;;;;;100.65;58.65;;;;;;;2.60;100.00;99079.56;4998705;28;20042;-77
2024/01/17 00:24:28;;;;;;;102.90;59.03;;;;;;;2.65;100.00;99088.72;5002063;28;20025;-78
2024/01/17 00:26:53;;;;;;;98.97;57.67;;;;;;;2.70;100.00;99081.47;5010623;28;20034;-77
2024/01/17 00:29:19;;;;;;;105.60;60.75;;;;;;;2.74;100.00;99077.69;5009618;28;20117;-78
2024/01/17 00:31:45;;;;;;;99.28;57.25;;;;;;;2.78;100.00;99073.09;5010158;28;20036;-78
2024/01/17 00:34:10;;;;;;;107.03;60.13;;;;;;;2.75;100.00;99063.72;5009894;28;20030;-77
2024/01/17 00:36:35;;;;;;;98.93;58.00;;;;;;;2.75;100.00;99068.94;5005093;28;20071;-77
2024/01/17 00:39:01;;;;;;;111.35;60.28;;;;;;;2.74;100.00;99067.28;5009805;28;20076;-78
2024/01/17 00:41:26;;;;;;;99.82;59.25;;;;;;;2.72;100.00;99069.13;5010219;28;20032;-78
2024/01/17 00:43:52;;;;;;;97.18;56.92;;;;;;;2.68;100.00;99067.69;4999819;28;20372;-78
2024/01/17 00:46:17;;;;;;;100.85;57.92;;;;;;;2.63;100.00;99077.59;4999661;28;20936;-78
2024/01/17 00:48:43;;;;;;;99.35;58.08;;;;;;;2.61;100.00;99074.25;5001093;28;20061;-77
2024/01/17 00:51:08;;;;;;;103.38;58.90;;;;;;;2.64;100.00;99081.88;4999118;28;20039;-76
2024/01/17 00:53:34;;;;;;;100.20;58.22;;;;;;;2.60;100.00;99071.75;5010465;28;20100;-77
2024/01/17 00:55:59;;;;;;;105.75;59.25;;;;;;;2.64;100.00;99076.66;4999300;28;20068;-77
2024/01/17 00:58:25;;;;;;;99.97;59.00;;;;;;;2.54;100.00;99065.19;5016596;28;20034;-76
2024/01/17 01:00:50;;;;;;;100.15;57.88;;;;;;;2.50;100.00;99035.09;5010162;28;20038;-77
2024/01/17 01:03:16;;;;;;;105.05;58.80;;;;;;;2.50;100.00;99035.09;5024735;28;20034;-76
2024/01/17 01:05:41;;;;;;;106.05;59.53;;;;;;;2.56;100.00;99037.28;5010618;28;20493;-76
2024/01/17 01:08:06;;;;;;;100.82;59.45;;;;;;;2.63;100.00;99038.53;5009948;28;20106;-76
2024/01/17 01:10:32;;;;;;;98.50;58.45;;;;;;;2.66;100.00;99043.50;5010864;28;20044;-77
2024/01/17 01:12:57;;;;;;;99.63;57.53;;;;;;;2.74;100.00;99049.03;5010770;28;20033;-76
2024/01/17 01:15:23;;;;;;;99.85;57.97;;;;;;;2.78;100.00;99058.28;4999656;28;20506;-76
2024/01/17 01:17:48;;;;;;;103.78;59.53;;;;;;;2.81;100.00;99047.69;5000929;28;20034;-76
2024/01/17 01:20:15;;;;;;;101.45;58.13;;;;;;;2.82;100.00;99043.31;5008009;28;20022;-76
2024/01/17 01:22:41;;;;;;;96.97;56.65;;;;;;;2.81;100.00;99052.88;5009434;28;20058;-77
2024/01/17 01:25:06;;;;;;;100.15;58.67;;;;;;;2.78;100.00;99063.50;5009664;28;20057;-77
2024/01/17 01:27:32;;;;;;;98.28;57.60;;;;;;;2.76;100.00;99057.59;5001584;28;20026;-77
2024/01/17 01:29:59;;;;;;;103.25;58.03;;;;;;;2.75;100.00;99061.13;4998147;28;20034;-76
2024/01/17 01:32:25;;;;;;;98.43;57.97;;;;;;;2.71;100.00;99057.03;5008741;28;20409;-77
2024/01/17 01:34:50;;;;;;;105.00;59.65;;;;;;;2.70;100.00;99051.97;5009639;28;20180;-76
2024/01/17 01:37:16;;;;;;;102.95;58.85;;;;;;;2.69;100.00;99032.88;5007944;28;20536;-76
2024/01/17 01:39:41;;;;;;;100.50;58.38;;;;;;;2.70;100.00;99029.34;5001074;28;20021;-77
2024/01/17 01:42:07;;;;;;;103.70;58.75;;;;;;;2.74;100.00;99025.59;4998113;28;20455;-77
2024/01/17 01:44:33;;;;;;;97.32;57.80;;;;;;;2.75;100.00;99029.84;5010238;28;20053;-76
2024/01/17 01:46:59;;;;;;;100.78;58.58;;;;;;;2.72;100.00;99030.06;5009780;28;20479;-76
2024/01/17 01:49:25;;;;;;;95.95;56.55;;;;;;;2.74;100.00;99022.97;5009574;28;20041;-77
2024/01/17 01:51:52;;;;;;;95.65;56.60;;;;;;;2.77;100.00;99025.34;5009110;28;20030;-77
2024/01/17 01:54:21;;;;;;;99.15;56.80;;;;;;;2.77;100.00;99025.34;5009393;28;20525;-78
2024/01/17 01:56:48;;;;;;;89.68;55.85;;;;;;;2.79;100.00;99018.28;5009660;28;20029;-77
2024/01/17 01:59:17;;;;;;;92.13;55.33;;;;;;;2.83;100.00;99024.94;4997160;28;20813;-77
2024/01/17 02:01:42;;;;;;;97.85;55.40;;;;;;;2.85;100.00;99007.44;4996644;28;20128;-76
2024/01/17 02:04:09;;;;;;;101.80;56.85;;;;;;;2.87;100.00;99015.97;4998529;28;20045;-75
2024/01/17 02:06:35;;;;;;;102.40;55.88;;;;;;;2.82;100.00;99017.25;5003528;28;20402;-76
2024/01/17 02:09:01;;;;;;;97.88;56.97;;;;;;;2.79;100.00;99010.47;5009530;28;20041;-77
2024/01/17 02:11:31;;;;;;;95.93;55.60;;;;;;;2.85;100.00;99015.25;5024655;28;20096;-77
2024/01/17 02:13:57;;;;;;;91.28;54.15;;;;;;;2.89;100.00;99023.66;5011320;28;20033;-77
2024/01/17 02:16:24;;;;;;;93.32;54.92;;;;;;;2.93;100.00;99029.50;5013058;28;20072;-77
2024/01/17 02:18:50;;;;;;;98.63;55.75;;;;;;;2.98;100.00;99017.00;5002833;28;20037;-76
2024/01/17 02:21:16;;;;;;;91.82;53.75;;;;;;;3.00;100.00;99007.28;5001412;28;20034;-77
2024/01/17 02:23:41;;;;;;;94.68;54.30;;;;;;;3.00;100.00;99015.13;5003639;28;20037;-76
2024/01/17 02:26:07;;;;;;;91.90;54.45;;;;;;;2.98;100.00;99027.41;5001096;28;20038;-77
2024/01/17 02:28:32;;;;;;;101.35;54.92;;;;;;;2.93;100.00;99029.50;5012484;28;20117;-77
2024/01/17 02:30:58;;;;;;;100.72;56.72;;;;;;;2.84;100.00;99021.38;5001032;28;20035;-76
2024/01/17 02:33:24;;;;;;;95.07;54.75;;;;;;;2.78;100.00;99016.59;5003140;28;20042;-76
2024/01/17 02:35:49;;;;;;;91.53;54.72;;;;;;;2.74;100.00;99012.56;5005265;28;20478;-76
2024/01/17 02:38:15;;;;;;;94.32;56.22;;;;;;;2.72;100.00;99003.16;5011743;28;20108;-77
2024/01/17 02:40:40;;;;;;;91.97;55.17;;;;;;;2.70;100.00;98997.25;5012308;28;20032;-77
2024/01/17 02:43:06;;;;;;;93.55;55.45;;;;;;;2.69;100.00;98982.56;5011627;28;20587;-77
2024/01/17 02:45:31;;;;;;;91.15;55.38;;;;;;;2.73;100.00;98986.59;5012059;28;20053;-78
2024/01/17 02:47:57;;;;;;;91.35;55.05;;;;;;;2.72;100.00;98983.16;5012195;28;20119;-77
2024/01/17 02:50:23;;;;;;;98.82;55.78;;;;;;;2.70;100.00;98977.25;5011366;28;20113;-77
2024/01/17 02:52:49;;;;;;;97.40;56.83;;;;;;;2.62;100.00;99002.16;5011563;28;20037;-77
2024/01/17 02:55:16;;;;;;;93.93;56.00;;;;;;;2.58;100.00;98982.47;5011846;28;20026;-78
2024/01/17 02:57:42;;;;;;;101.63;57.75;;;;;;;2.57;100.00;98973.00;5012151;28;20034;-76
2024/01/17 03:00:09;;;;;;;104.60;59.92;;;;;;;2.59;100.00;98963.31;5003267;28;20075;-78
2024/01/17 03:02:35;;;;;;;100.50;57.47;;;;;;;2.61;100.00;98944.00;5000341;28;20018;-78
2024/01/17 03:05:01;;;;;;;95.80;55.92;;;;;;;2.64;100.00;98909.13;5005677;28;20240;-78
2024/01/17 03:07:27;;;;;;;96.63;55.88;;;;;;;2.68;100.00;98927.00;5009872;28;20037;-78
2024/01/17 03:09:52;;;;;;;92.38;54.78;;;;;;;2.70;100.00;98929.53;5011172;28;20041;-79
2024/01/17 03:12:20;;;;;;;100.35;57.80;;;;;;;2.71;100.00;98918.97;5010924;28;20142;-77
2024/01/17 03:14:45;;;;;;;96.43;56.50;;;;;;;2.68;100.00;98908.78;5001804;28;20364;-76
2024/01/17 03:17:12;;;;;;;96.97;57.45;;;;;;;2.67;100.00;98885.44;5000042;28;20042;-76
2024/01/17 03:19:38;;;;;;;92.50;55.13;;;;;;;2.75;100.00;98902.19;5002923;28;20076;-77
2024/01/17 03:22:04;;;;;;;92.70;54.75;;;;;;;2.80;100.00;98915.72;4997240;28;20046;-77
2024/01/17 03:24:29;;;;;;;96.63;53.45;;;;;;;2.84;100.00;98916.31;5001812;28;20061;-77
2024/01/17 03:26:55;;;;;;;98.07;55.58;;;;;;;2.83;100.00;98930.28;5000116;28;20069;-76
2024/01/17 03:29:20;;;;;;;98.00;54.95;;;;;;;2.77;100.00;98931.56;5001002;28;20077;-76
2024/01/17 03:31:47;;;;;;;93.97;55.80;;;;;;;2.72;100.00;98902.41;5010929;28;20034;-76
2024/01/17 03:34:13;;;;;;;91.70;53.58;;;;;;;2.75;100.00;98896.16;5010541;28;20033;-76
2024/01/17 03:36:38;;;;;;;94.50;54.97;;;;;;;2.75;100.00;98897.00;5011778;28;20129;-77
2024/01/17 03:39:04;;;;;;;94.35;55.40;;;;;;;2.74;100.00;98890.09;5010319;28;20105;-77
2024/01/17 03:41:29;;;;;;;96.63;55.85;;;;;;;2.77;100.00;98886.44;5010498;28;20034;-77
2024/01/17 03:43:57;;;;;;;100.03;55.88;;;;;;;2.78;100.00;98895.91;5014936;28;20391;-77
2024/01/17 03:46:22;;;;;;;94.38;55.30;;;;;;;2.84;100.00;98896.31;5001302;28;20042;-77
2024/01/17 03:48:48;;;;;;;93.25;55.15;;;;;;;2.85;100.00;98890.16;5010547;28;20034;-78
2024/01/17 03:51:13;;;;;;;92.88;55.63;;;;;;;2.85;100.00;98891.94;5010025;28;20037;-79
2024/01/17 03:53:38;;;;;;;94.97;56.00;;;;;;;2.85;100.00;98887.56;5001623;28;20304;-80
2024/01/17 03:56:04;;;;;;;98.80;55.60;;;;;;;2.89;100.00;98878.56;4998503;28;20088;-80
2024/01/17 03:58:29;;;;;;;95.18;54.90;;;;;;;2.88;100.00;98895.19;5002428;28;20038;-80
2024/01/17 04:00:55;;;;;;;93.15;55.25;;;;;;;2.81;100.00;98900.94;5008862;28;20061;-78
2024/01/17 04:03:20;;;;;;;93.70;54.50;;;;;;;2.83;100.00;98893.81;4999818;28;20238;-79
2024/01/17 04:05:46;;;;;;;92.07;54.65;;;;;;;2.75;100.00;98891.78;5003319;28;20064;-79
2024/01/17 04:08:11;;;;;;;91.10;55.45;;;;;;;2.70;100.00;98887.84;5009491;28;20049;-79
2024/01/17 04:10:37;;;;;;;94.20;54.90;;;;;;;2.71;100.00;98869.47;5001804;28;20037;-78
2024/01/17 04:13:02;;;;;;;94.00;55.70;;;;;;;2.73;100.00;98871.97;4998362;28;20260;-79
2024/01/17 04:15:29;;;;;;;93.30;54.47;;;;;;;2.66;100.00;98861.16;5001655;28;20466;-77
2024/01/17 04:17:54;;;;;;;81.25;52.15;;;;;;;2.66;100.00;98845.53;5010219;28;20033;-77
2024/01/17 04:20:20;;;;;;;93.00;54.03;;;;;;;2.68;100.00;98833.25;5010228;28;20116;-78
2024/01/17 04:22:45;;;;;;;92.93;54.45;;;;;;;2.68;100.00;98821.97;5009668;28;20113;-78
2024/01/17 04:25:11;;;;;;;90.72;53.78;;;;;;;2.68;100.00;98815.00;5007993;28;20371;-79
2024/01/17 04:27:37;;;;;;;91.97;54.28;;;;;;;2.72;100.00;98816.44;5008561;28;20381;-79
2024/01/17 04:30:03;;;;;;;92.25;54.33;;;;;;;2.71;100.00;98833.00;5008455;28;20061;-79
2024/01/17 04:32:32;;;;;;;96.05;55.88;;;;;;;2.75;100.00;98844.06;5009990;28;20065;-78
2024/01/17 04:34:57;;;;;;;93.82;53.67;;;;;;;2.79;100.00;98840.28;5017073;28;20034;-78
2024/01/17 04:37:22;;;;;;;83.85;52.78;;;;;;;2.82;100.00;98833.09;5008732;28;20107;-80
2024/01/17 04:39:48;;;;;;;91.45;54.50;;;;;;;2.82;100.00;98830.47;5000219;28;20451;-80
2024/01/17 04:42:13;;;;;;;90.43;54.60;;;;;;;2.81;100.00;98823.59;4999120;28;20034;-78
2024/01/17 04:44:39;;;;;;;90.03;53.97;;;;;;;2.78;100.00;98813.38;5009969;28;20034;-79
2024/01/17 04:47:05;;;;;;;89.28;52.92;;;;;;;2.76;100.00;98822.28;5010393;28;20072;-79
2024/01/17 04:49:30;;;;;;;89.47;52.53;;;;;;;2.71;100.00;98811.34;5009236;28;20034;-80
2024/01/17 04:51:56;;;;;;;92.82;56.03;;;;;;;2.71;100.00;98793.91;5009762;28;20041;-79
2024/01/17 04:54:23;;;;;;;87.85;53.95;;;;;;;2.76;100.00;98809.25;5008274;28;20045;-79
2024/01/17 04:56:48;;;;;;;96.13;53.70;;;;;;;2.76;100.00;98824.88;5002945;28;20466;-79
2024/01/17 04:59:14;;;;;;;88.25;52.47;;;;;;;2.78;100.00;98802.13;5008223;28;20042;-80
2024/01/17 05:01:39;;;;;;;90.05;52.90;;;;;;;2.74;100.00;98817.16;5001190;28;20069;-79
2024/01/17 05:04:05;;;;;;;90.57;53.35;;;;;;;2.69;100.00;98840.13;4997688;28;20497;-79
2024/01/17 05:06:32;;;;;;;87.97;54.70;;;;;;;2.69;100.00;98840.13;5006798;28;20057;-81
2024/01/17 05:08:57;;;;;;;91.57;53.60;;;;;;;2.55;100.00;98842.88;5009833;28;20661;-80
2024/01/17 05:11:24;;;;;;;88.85;54.30;;;;;;;2.45;100.00;98852.28;5007200;28;20045;-80
2024/01/17 05:13:50;;;;;;;92.28;55.45;;;;;;;2.54;100.00;98856.81;5009270;28;20064;-79
2024/01/17 05:16:17;;;;;;;93.65;53.13;;;;;;;2.62;100.00;98854.50;5007599;28;20497;-78
2024/01/17 05:18:44;;;;;;;89.18;52.88;;;;;;;2.61;100.00;98847.63;5021986;28;20475;-80
2024/01/17 05:21:10;;;;;;;87.25;51.20;;;;;;;2.65;100.00;98840.44;5008333;28;20450;-79
2024/01/17 05:23:37;;;;;;;87.95;52.17;;;;;;;2.63;100.00;98840.56;5009433;28;20029;-80
2024/01/17 05:26:03;;;;;;;92.60;53.97;;;;;;;2.58;100.00;98850.47;5005875;28;20145;-81
2024/01/17 05:28:29;;;;;;;88.45;53.05;;;;;;;2.59;100.00;98849.53;5009473;28;20021;-80
2024/01/17 05:30:54;;;;;;;84.43;51.20;;;;;;;2.63;100.00;98850.97;4998949;28;20052;-79
2024/01/17 05:33:19;;;;;;;92.00;54.83;;;;;;;2.68;100.00;98859.28;4999186;28;20447;-79
2024/01/17 05:35:45;;;;;;;83.25;51.65;;;;;;;2.71;100.00;98859.06;5010989;28;20083;-79
2024/01/17 05:38:10;;;;;;;89.53;53.55;;;;;;;2.71;100.00;98853.84;5008870;28;20026;-78
2024/01/17 05:40:36;;;;;;;94.07;53.25;;;;;;;2.71;100.00;98859.06;5001085;28;20038;-79
2024/01/17 05:43:01;;;;;;;87.18;52.65;;;;;;;2.67;100.00;98852.41;5012410;28;20040;-81
2024/01/17 05:45:27;;;;;;;86.60;51.85;;;;;;;2.63;100.00;98855.34;5000319;28;20128;-80
2024/01/17 05:47:52;;;;;;;92.75;53.65;;;;;;;2.62;100.00;98849.31;5009738;28;20038;-78
2024/01/17 05:50:18;;;;;;;87.93;52.83;;;;;;;2.61;100.00;98839.81;5012787;28;20084;-79
2024/01/17 05:52:50;;;;;;;88.18;52.40;;;;;;;2.63;100.00;98845.75;5003377;28;20053;-79
2024/01/17 05:55:17;;;;;;;89.45;53.47;;;;;;;2.63;100.00;98844.94;5002189;28;20117;-78
2024/01/17 05:57:43;;;;;;;88.80;53.58;;;;;;;2.64;100.00;98850.03;5012585;28;20037;-80
2024/01/17 06:00:10;;;;;;;87.80;53.30;;;;;;;2.67;100.00;98844.59;5011578;28;20038;-76
2024/01/17 06:02:40;;;;;;;90.18;54.83;;;;;;;2.68;100.00;98833.25;5010385;28;20176;-77
2024/01/17 06:05:08;;;;;;;89.53;52.67;;;;;;;2.71;100.00;98814.75;5008656;28;20038;-79
2024/01/17 06:07:33;;;;;;;87.80;52.40;;;;;;;2.71;100.00;98801.75;5011856;28;20041;-75
2024/01/17 06:10:00;;;;;;;90.15;52.47;;;;;;;2.74;100.00;98806.75;5012622;28;20032;-78
2024/01/17 06:12:26;;;;;;;86.75;50.85;;;;;;;2.78;100.00;98817.75;5003763;28;20050;-76
2024/01/17 06:14:51;;;;;;;90.60;54.13;;;;;;;2.83;100.00;98821.69;5010896;28;20394;-74
2024/01/17 06:17:17;;;;;;;94.00;53.10;;;;;;;2.87;100.00;98843.16;5009429;28;20117;-75
2024/01/17 06:19:43;;;;;;;87.00;52.55;;;;;;;2.79;100.00;98841.09;5012214;28;20137;-75
2024/01/17 06:22:09;;;;;;;91.75;51.33;;;;;;;2.86;100.00;98829.31;5011265;28;20030;-74
2024/01/17 06:24:35;;;;;;;86.72;51.15;;;;;;;2.89;100.00;98830.84;5005452;28;20085;-78
2024/01/17 06:27:01;;;;;;;86.72;51.38;;;;;;;2.81;100.00;98834.00;5009859;28;20906;-75
2024/01/17 06:29:29;;;;;;;89.63;52.03;;;;;;;2.79;100.00;98825.47;5011188;28;20055;-74
2024/01/17 06:31:55;;;;;;;91.78;52.33;;;;;;;2.79;100.00;98851.53;5011762;28;20053;-76
2024/01/17 06:34:21;;;;;;;93.35;53.08;;;;;;;2.83;100.00;98831.28;5012383;28;20779;-76
2024/01/17 06:36:47;;;;;;;88.15;51.28;;;;;;;2.84;100.00;98833.78;5012636;28;20034;-76
2024/01/17 06:39:13;;;;;;;87.60;52.65;;;;;;;2.87;100.00;98838.78;5013183;28;20041;-75
2024/01/17 06:41:38;;;;;;;85.75;52.67;;;;;;;2.89;100.00;98828.22;5011761;28;20033;-75
2024/01/17 06:44:04;;;;;;;94.28;51.72;;;;;;;2.88;100.00;98832.63;5011622;28;20057;-75
2024/01/17 06:46:29;;;;;;;91.22;52.20;;;;;;;2.66;100.00;98829.91;5011263;28;20431;-75
2024/01/17 06:48:55;;;;;;;82.32;49.75;;;;;;;2.59;100.00;98823.50;5011471;28;20033;-74
2024/01/17 06:51:20;;;;;;;86.00;50.78;;;;;;;2.63;100.00;98824.94;5010996;28;20133;-75
2024/01/17 06:53:46;;;;;;;88.35;52.47;;;;;;;2.74;100.00;98822.38;5011529;28;20060;-74
2024/01/17 06:56:11;;;;;;;90.40;52.83;;;;;;;2.78;100.00;98823.81;5007704;28;20044;-77
2024/01/17 06:58:36;;;;;;;88.57;51.88;;;;;;;2.83;100.00;98826.91;5010947;28;20069;-76
2024/01/17 07:01:02;;;;;;;84.88;51.10;;;;;;;2.83;100.00;98831.28;5007978;28;20061;-76
2024/01/17 07:03:28;;;;;;;86.75;51.47;;;;;;;2.81;100.00;98839.22;5010291;28;20466;-75
2024/01/17 07:05:53;;;;;;;88.07;51.67;;;;;;;2.78;100.00;98836.00;5008789;28;20100;-76
2024/01/17 07:08:19;;;;;;;93.78;52.60;;;;;;;2.78;100.00;98834.22;5009674;28;20482;-75
2024/01/17 07:10:44;;;;;;;92.18;53.05;;;;;;;2.72;100.00;98832.06;5023755;28;20042;-74
2024/01/17 07:13:10;;;;;;;86.45;52.30;;;;;;;2.72;100.00;98826.03;5006694;28;20062;-76
2024/01/17 07:15:35;;;;;;;91.40;52.22;;;;;;;2.79;100.00;98820.25;5007229;28;20121;-75
2024/01/17 07:18:01;;;;;;;92.25;51.67;;;;;;;2.84;100.00;98825.97;5010001;28;20425;-76
2024/01/17 07:20:26;;;;;;;94.30;53.55;;;;;;;2.84;100.00;98833.78;5010573;28;20506;-76
2024/01/17 07:22:51;;;;;;;88.30;52.17;;;;;;;2.81;100.00;98828.81;5026384;28;20037;-76
2024/01/17 07:25:17;;;;;;;93.72;52.72;;;;;;;2.78;100.00;98829.00;5010806;28;20030;-75
2024/01/17 07:27:46;;;;;;;88.65;52.58;;;;;;;2.88;100.00;98824.81;5010739;28;20426;-76
2024/01/17 07:30:12;;;;;;;89.65;51.67;;;;;;;2.89;100.00;98820.41;5019010;28;20027;-76
2024/01/17 07:32:38;;;;;;;91.15;52.55;;;;;;;2.77;100.00;98829.94;5005289;28;20398;-75
2024/01/17 07:35:09;;;;;;;93.53;53.22;;;;;;;2.81;100.00;98828.81;5010288;28;20048;-75
2024/01/17 07:37:35;;;;;;;;;;;;;;;2.85;100.00;98822.41;5012836;28;20117;-78
2024/01/17 07:40:01;;;;;;;90.43;51.97;;;;;;;2.77;100.00;98824.75;5009646;28;19917;-76
2024/01/17 07:42:26;;;;;;;86.65;51.28;;;;;;;2.74;100.00;98822.38;5010002;28;20486;-80
2024/01/17 07:44:52;;;;;;;90.35;52.30;;;;;;;2.83;100.00;98837.31;5010388;28;20041;-78
2024/01/17 07:47:17;;;;;;;88.38;51.45;;;;;;;2.72;100.00;98829.47;5009399;28;20044;-78
2024/01/17 07:49:44;;;;;;;90.20;52.00;;;;;;;2.74;100.00;98827.59;5006135;28;20038;-76
2024/01/17 07:52:10;;;;;;;93.60;52.63;;;;;;;2.61;100.00;98828.56;5006494;28;20095;-77
2024/01/17 07:54:36;;;;;;;90.55;53.03;;;;;;;2.69;100.00;98826.25;5010944;28;20083;-77
2024/01/17 07:57:02;;;;;;;90.03;53.15;;;;;;;2.65;100.00;98825.63;5010026;28;20507;-76
2024/01/17 07:59:28;;;;;;;91.30;53.40;;;;;;;2.66;100.00;98822.09;5009574;28;20100;-77
2024/01/17 08:01:55;;;;;;;89.47;54.20;;;;;;;2.75;100.00;98818.84;5010270;28;20172;-78
2024/01/17 08:04:21;;;;;;;90.00;52.17;;;;;;;2.77;100.00;98822.13;5004605;28;20041;-77
2024/01/17 08:06:48;;;;;;;93.95;53.83;;;;;;;2.81;100.00;98836.63;5016380;28;20037;-77
2024/01/17 08:09:21;;;;;;;94.82;53.33;;;;;;;2.72;100.00;98834.66;5024269;28;20038;-76
2024/01/17 08:11:56;;;;;;;89.30;52.25;;;;;;;2.81;100.00;98839.22;5008767;28;20030;-77
2024/01/17 08:14:22;;;;;;;90.63;53.13;;;;;;;2.85;100.00;98845.88;5009283;28;20061;-76
2024/01/17 08:16:48;;;;;;;93.88;54.75;;;;;;;2.85;100.00;98838.06;5007530;28;20486;-78
2024/01/17 08:19:14;;;;;;;107.93;64.93;;;;;;;2.88;100.00;98824.81;5008846;28;20040;-78
2024/01/17 08:21:47;;;;;;;116.95;69.85;;;;;;;2.88;100.00;98814.41;5009188;28;20454;-78
2024/01/17 08:24:13;;;;;;;99.18;58.47;;;;;;;2.78;100.00;98802.97;5010560;28;20048;-77
2024/01/17 08:26:39;;;;;;;97.70;54.75;;;;;;;2.71;100.00;98793.13;5010076;28;20026;-78
2024/01/17 08:29:05;;;;;;;99.65;57.58;;;;;;;2.69;100.00;98788.00;5009630;28;20092;-78
2024/01/17 08:31:30;;;;;;;103.60;58.13;;;;;;;2.71;100.00;98765.28;5008180;28;20118;-78
2024/01/17 08:33:58;;;;;;;99.82;58.05;;;;;;;2.75;100.00;98764.13;5009471;28;20045;-79
2024/01/17 08:36:29;;;;;;;109.88;64.30;;;;;;;2.79;100.00;98756.91;5008363;28;20100;-76
2024/01/17 08:38:54;;;;;;;101.28;60.65;;;;;;;2.83;100.00;98753.94;5008932;28;20041;-78
2024/01/17 08:41:20;;;;;;;98.75;57.95;;;;;;;2.87;100.00;98760.63;5008937;28;20026;-78
2024/01/17 08:43:46;;;;;;;102.90;59.30;;;;;;;2.85;100.00;98775.53;5009321;28;20057;-77
2024/01/17 08:46:13;;;;;;;98.43;57.80;;;;;;;2.81;100.00;98776.69;5009000;28;20065;-78
2024/01/17 08:48:39;;;;;;;94.53;55.78;;;;;;;2.74;100.00;98780.69;5005496;28;20173;-79
2024/01/17 08:51:05;;;;;;;87.63;53.05;;;;;;;2.72;100.00;98786.94;5008444;28;20377;-77
2024/01/17 08:53:31;;;;;;;94.90;55.03;;;;;;;2.75;100.00;98784.97;5009678;28;20041;-77
2024/01/17 08:55:58;;;;;;;96.65;55.45;;;;;;;2.79;100.00;98783.78;5009161;28;20026;-77
2024/01/17 08:58:24;;;;;;;98.97;54.17;;;;;;;2.82;100.00;98785.34;5008930;28;20088;-78
2024/01/17 09:00:49;;;;;;;96.57;55.13;;;;;;;2.79;100.00;98790.75;5008474;28;20109;-78
2024/01/17 09:03:15;;;;;;;94.90;53.55;;;;;;;2.60;100.00;98788.66;5004095;28;20136;-78
2024/01/17 09:05:40;;;;;;;97.75;55.00;;;;;;;2.48;100.00;98805.19;5008496;28;20084;-78
2024/01/17 09:08:06;;;;;;;102.95;56.25;;;;;;;2.40;100.00;98794.50;5004885;28;20034;-78
2024/01/17 09:10:32;;;;;;;99.35;56.30;;;;;;;2.37;100.00;98789.50;5008473;28;20034;-80
2024/01/17 09:12:57;;;;;;;98.57;54.72;;;;;;;2.30;100.00;98785.66;5024335;28;20498;-78
2024/01/17 09:15:23;;;;;;;100.47;58.30;;;;;;;2.23;100.00;98784.47;5008367;28;20844;-79
2024/01/17 09:17:50;;;;;;;99.95;56.17;;;;;;;2.24;100.00;98780.94;5009477;28;20080;-78
2024/01/17 09:20:16;;;;;;;104.35;59.35;;;;;;;2.25;100.00;98785.16;5008428;28;20545;-76
2024/01/17 09:22:42;;;;;;;104.53;58.28;;;;;;;2.28;100.00;98787.56;5009429;28;20125;-76
2024/01/17 09:25:10;;;;;;;106.35;60.15;;;;;;;2.33;100.00;98796.72;5012040;28;20433;-76
2024/01/17 09:27:36;;;;;;;101.25;57.33;;;;;;;2.39;100.00;98800.66;5009051;28;20056;-76
2024/01/17 09:30:02;;;;;;;102.00;59.38;;;;;;;2.36;100.00;98796.47;5011810;28;20026;-79
2024/01/17 09:32:28;;;;;;;100.30;58.42;;;;;;;2.39;100.00;98790.22;5016729;28;20506;-77
2024/01/17 09:34:54;;;;;;;96.53;56.38;;;;;;;2.41;100.00;98788.34;5014433;28;20498;-79
2024/01/17 09:37:19;;;;;;;102.28;57.92;;;;;;;2.45;100.00;98784.59;5025762;28;20086;-79
2024/01/17 09:39:45;;;;;;;105.18;59.17;;;;;;;2.53;100.00;98779.66;5012476;28;20112;-78
2024/01/17 09:42:13;;;;;;;104.00;58.78;;;;;;;2.59;100.00;98767.97;5012356;28;20117;-78
2024/01/17 09:44:39;;;;;;;104.45;58.63;;;;;;;2.70;100.00;98768.84;5012510;28;20029;-78
2024/01/17 09:47:05;;;;;;;99.65;57.17;;;;;;;2.78;100.00;98763.03;5008325;28;20041;-78
2024/01/17 09:49:32;;;;;;;100.22;56.10;;;;;;;2.85;100.00;98754.66;5012910;28;20034;-78
2024/01/17 09:52:03;;;;;;;97.38;57.75;;;;;;;2.96;100.00;98768.66;5012409;28;20038;-77
2024/01/17 09:54:36;;;;;;;94.55;55.75;;;;;;;3.01;100.00;98762.16;5011812;28;20026;-78
2024/01/17 09:57:07;;;;;;;92.63;54.85;;;;;;;3.05;100.00;98757.56;5007892;28;20132;-79
2024/01/17 09:59:37;;;;;;;97.70;53.55;;;;;;;3.05;100.00;98752.38;5012644;28;20125;-78
2024/01/17 10:02:04;;;;;;;96.10;54.67;;;;;;;3.02;100.00;98749.97;5008731;28;20060;-78
2024/01/17 10:04:30;;;;;;;99.28;56.35;;;;;;;3.04;100.00;98740.28;5012255;28;20121;-77
2024/01/17 10:06:56;;;;;;;95.80;55.83;;;;;;;3.13;100.00;98734.34;5008728;28;20037;-79
2024/01/17 10:09:24;;;;;;;97.18;55.33;;;;;;;3.24;100.00;98726.56;5012128;28;20041;-78
2024/01/17 10:11:51;;;;;;;96.03;54.60;;;;;;;3.35;100.00;98734.41;5007848;28;20130;-78
2024/01/17 10:14:17;;;;;;;90.43;54.17;;;;;;;3.46;100.00;98721.38;5010440;28;20038;-78
2024/01/17 10:16:42;;;;;;;94.25;55.17;;;;;;;3.56;100.00;98706.66;5011790;28;20493;-77
2024/01/17 10:19:08;;;;;;;88.38;52.95;;;;;;;3.66;100.00;98710.19;5011402;28;20445;-78
2024/01/17 10:21:34;;;;;;;91.43;53.60;;;;;;;3.70;100.00;98724.69;5011746;28;20041;-78
2024/01/17 10:24:03;;;;;;;94.82;54.83;;;;;;;3.76;100.00;98731.19;5011818;28;20113;-78
2024/01/17 10:26:30;;;;;;;93.10;52.75;;;;;;;3.81;100.00;98723.00;5011442;28;20029;-78
2024/01/17 10:28:57;;;;;;;83.75;50.70;;;;;;;3.90;100.00;98714.44;5011796;28;20116;-79
2024/01/17 10:31:24;;;;;;;84.93;51.53;;;;;;;3.94;100.00;98721.09;5011771;28;20534;-79
2024/01/17 10:33:53;;;;;;;88.03;51.65;;;;;;;3.81;100.00;98731.66;5011091;28;20133;-78
2024/01/17 10:36:19;;;;;;;85.35;50.67;;;;;;;3.65;100.00;98726.78;5025733;28;20048;-78
2024/01/17 10:38:46;;;;;;;94.57;52.00;;;;;;;3.59;100.00;98714.22;5024289;28;20478;-78
2024/01/17 10:41:13;;;;;;;88.28;51.83;;;;;;;3.56;100.00;98711.88;5010259;28;20033;-77
2024/01/17 10:43:56;;;;;;;88.13;52.13;;;;;;;3.60;100.00;98697.63;5011448;28;20057;-78
2024/01/17 10:46:25;;;;;;;85.82;49.95;;;;;;;3.64;100.00;98699.06;5014667;28;20054;-77
2024/01/17 10:48:51;;;;;;;82.78;50.33;;;;;;;3.66;100.00;98696.31;5011163;28;20021;-78
2024/01/17 10:51:21;;;;;;;88.97;50.97;;;;;;;3.64;100.00;98687.81;5010346;28;20177;-76
2024/01/17 10:53:48;;;;;;;;;;;;;;;3.62;100.00;98682.69;5010923;28;20030;-79
2024/01/17 10:56:18;;;;;;;90.40;53.88;;;;;;;3.64;100.00;98670.38;5007656;28;20039;-79
2024/01/17 10:58:47;;;;;;;88.70;51.75;;;;;;;3.77;100.00;98651.13;5010424;28;20042;-79
2024/01/17 11:01:14;;;;;;;89.30;51.00;;;;;;;3.92;100.00;98642.91;5010410;28;20030;-79
2024/01/17 11:03:44;;;;;;;81.82;51.25;;;;;;;4.03;100.00;98647.25;5010210;28;20098;-79
2024/01/17 11:06:10;;;;;;;84.47;51.92;;;;;;;4.05;100.00;98651.41;5010807;28;20176;-79
2024/01/17 11:08:38;;;;;;;86.70;50.97;;;;;;;3.96;100.00;98652.13;5009990;28;20494;-79
2024/01/17 11:11:06;;;;;;;83.10;51.05;;;;;;;3.96;100.00;98639.09;5006592;28;20033;-79